Time;durP1;ratioP1;P1;durP2;ratioP2;P2;SDS_P1;SDS_P2;PMS_P1;PMS_P2;Temp;Humidity;BMP_temperature;BMP_pressure;BME280_temperature;BME280_humidity;BME280_pressure;Samples;Min_cycle;Max_cycle;Signal;HPM_P1;HPM_P2
2021/12/30 00:01:49;;;;;;;40.93;25.63;;;;;;;;;;5012962;28;20041;-63
2021/12/30 00:04:15;;;;;;;38.77;25.73;;;;;;;;;;5012765;28;20530;-63
2021/12/30 00:06:41;;;;;;;42.57;26.87;;;;;;;;;;4995077;28;20073;-64
2021/12/30 00:09:08;;;;;;;37.47;24.87;;;;;;;;;;5012426;28;20541;-64
2021/12/30 00:11:34;;;;;;;42.57;27.00;;;;;;;;;;5012422;28;20029;-64
2021/12/30 00:14:00;;;;;;;44.00;26.63;;;;;;;;;;5012733;28;20022;-64
2021/12/30 00:16:26;;;;;;;45.67;26.50;;;;;;;;;;5013672;28;20105;-63
2021/12/30 00:18:52;;;;;;;43.17;27.33;;;;;;;;;;5013105;28;20029;-63
2021/12/30 00:21:20;;;;;;;43.00;26.80;;;;;;;;;;5013564;28;20442;-63
2021/12/30 00:23:46;;;;;;;43.60;26.57;;;;;;;;;;5002154;28;20045;-64
2021/12/30 00:26:12;;;;;;;40.67;25.87;;;;;;;;;;5014215;28;20120;-64
2021/12/30 00:28:39;;;;;;;40.97;25.90;;;;;;;;;;5013298;28;20033;-63
2021/12/30 00:31:05;;;;;;;44.40;26.70;;;;;;;;;;5007031;28;20084;-63
2021/12/30 00:33:34;;;;;;;37.23;24.57;;;;;;;;;;4995275;28;20120;-64
2021/12/30 00:36:02;;;;;;;39.07;25.37;;;;;;;;;;5013402;28;20040;-63
2021/12/30 00:38:28;;;;;;;42.33;26.97;;;;;;;;;;5012516;28;20383;-63
2021/12/30 00:40:54;;;;;;;42.97;27.43;;;;;;;;;;5010362;28;20026;-63
2021/12/30 00:43:20;;;;;;;43.70;27.57;;;;;;;;;;5012887;28;20048;-63
2021/12/30 00:45:46;;;;;;;44.87;27.70;;;;;;;;;;5013018;28;20042;-64
2021/12/30 00:48:12;;;;;;;41.70;26.30;;;;;;;;;;5014199;28;20034;-63
2021/12/30 00:50:38;;;;;;;42.67;28.17;;;;;;;;;;5018676;28;20416;-64
2021/12/30 00:53:06;;;;;;;47.30;28.17;;;;;;;;;;5011364;28;20103;-64
2021/12/30 00:55:32;;;;;;;41.30;26.57;;;;;;;;;;5012461;28;20112;-64
2021/12/30 00:57:58;;;;;;;44.23;25.87;;;;;;;;;;5004523;28;20100;-64
2021/12/30 01:00:24;;;;;;;42.87;26.83;;;;;;;;;;4994736;28;20037;-64
2021/12/30 01:02:50;;;;;;;40.97;25.73;;;;;;;;;;5012307;28;20033;-64
2021/12/30 01:05:16;;;;;;;44.27;27.23;;;;;;;;;;5012234;28;20057;-64
2021/12/30 01:07:42;;;;;;;50.87;28.83;;;;;;;;;;5009751;28;20064;-64
2021/12/30 01:10:10;;;;;;;45.10;26.33;;;;;;;;;;5010500;28;20026;-64
2021/12/30 01:12:36;;;;;;;43.83;26.73;;;;;;;;;;5012665;28;20097;-63
2021/12/30 01:15:07;;;;;;;41.03;26.07;;;;;;;;;;5012585;28;20026;-64
2021/12/30 01:20:10;;;;;;;47.67;27.63;;;;;;;;;;5017418;28;20045;-64
2021/12/30 01:22:36;;;;;;;39.07;25.43;;;;;;;;;;5001192;28;20105;-63
2021/12/30 01:25:04;;;;;;;45.73;26.00;;;;;;;;;;5012496;28;20072;-63
2021/12/30 01:27:30;;;;;;;46.67;27.77;;;;;;;;;;5013291;28;20073;-63
2021/12/30 01:29:56;;;;;;;45.90;27.57;;;;;;;;;;5010502;28;20037;-63
2021/12/30 01:32:22;;;;;;;45.53;27.67;;;;;;;;;;5014277;28;20519;-63
2021/12/30 01:34:48;;;;;;;47.10;27.10;;;;;;;;;;5007887;28;20121;-63
2021/12/30 01:37:19;;;;;;;42.70;26.27;;;;;;;;;;5012087;28;20028;-64
2021/12/30 01:39:45;;;;;;;43.53;26.80;;;;;;;;;;4995488;28;20026;-63
2021/12/30 01:42:11;;;;;;;43.30;27.80;;;;;;;;;;4995280;28;20034;-63
2021/12/30 01:44:37;;;;;;;45.00;27.03;;;;;;;;;;5011099;28;20095;-64
2021/12/30 01:47:04;;;;;;;47.10;27.70;;;;;;;;;;5011281;28;20041;-64
2021/12/30 01:49:31;;;;;;;42.93;26.87;;;;;;;;;;5006284;28;20099;-63
2021/12/30 01:51:57;;;;;;;47.70;28.20;;;;;;;;;;5013014;28;20038;-64
2021/12/30 01:54:24;;;;;;;46.77;28.20;;;;;;;;;;5009656;28;20384;-64
2021/12/30 01:56:51;;;;;;;47.67;27.60;;;;;;;;;;5013115;28;20108;-64
2021/12/30 02:08:28;;;;;;;47.50;27.33;;;;;;;;;;5004866;28;20096;-64
2021/12/30 02:10:54;;;;;;;41.57;26.47;;;;;;;;;;5035737;28;20044;-64
2021/12/30 02:13:20;;;;;;;45.50;28.07;;;;;;;;;;5027646;28;20041;-63
2021/12/30 02:15:46;;;;;;;47.17;28.17;;;;;;;;;;5016889;28;20034;-64
2021/12/30 02:18:12;;;;;;;44.97;28.07;;;;;;;;;;5014258;28;20376;-64
2021/12/30 02:20:47;;;;;;;46.40;27.27;;;;;;;;;;5024336;28;20026;-64
2021/12/30 02:23:33;;;;;;;44.05;27.88;;;;;;;;;;5015763;28;20550;-64
2021/12/30 02:26:01;;;;;;;45.07;26.23;;;;;;;;;;5022858;28;20103;-63
2021/12/30 02:28:31;;;;;;;43.93;26.50;;;;;;;;;;5011625;28;20445;-64
2021/12/30 02:30:58;;;;;;;41.77;25.73;;;;;;;;;;5022197;28;20030;-63
2021/12/30 02:33:25;;;;;;;44.83;27.53;;;;;;;;;;5005217;28;20030;-63
2021/12/30 02:35:51;;;;;;;49.13;29.13;;;;;;;;;;5027680;28;20483;-63
2021/12/30 02:38:18;;;;;;;48.63;28.17;;;;;;;;;;5014958;28;20029;-63
2021/12/30 02:40:48;;;;;;;48.43;28.43;;;;;;;;;;5019548;28;20053;-64
2021/12/30 02:43:16;;;;;;;48.40;28.43;;;;;;;;;;5010080;28;20026;-63
2021/12/30 02:45:42;;;;;;;44.40;27.43;;;;;;;;;;4978120;28;20109;-63
2021/12/30 02:48:15;;;;;;;45.73;27.53;;;;;;;;;;5001813;28;20624;-63
2021/12/30 02:50:43;;;;;;;43.73;25.67;;;;;;;;;;5011864;28;20065;-63
2021/12/30 02:53:09;;;;;;;48.13;27.93;;;;;;;;;;5016989;28;20426;-64
2021/12/30 02:55:35;;;;;;;44.97;27.63;;;;;;;;;;5023659;28;20464;-64
2021/12/30 02:58:01;;;;;;;42.47;25.90;;;;;;;;;;5032195;28;20368;-64
2021/12/30 03:00:28;;;;;;;46.13;27.93;;;;;;;;;;5028131;28;20057;-64
2021/12/30 03:02:54;;;;;;;45.20;27.83;;;;;;;;;;5013959;28;20535;-64
2021/12/30 03:05:21;;;;;;;42.97;27.90;;;;;;;;;;5014201;28;20156;-64
2021/12/30 03:07:47;;;;;;;42.13;26.90;;;;;;;;;;5015694;28;20399;-64
2021/12/30 03:10:15;;;;;;;49.43;29.37;;;;;;;;;;5013348;28;20026;-64
2021/12/30 03:12:41;;;;;;;42.07;28.83;;;;;;;;;;5015379;28;20083;-64
2021/12/30 03:15:07;;;;;;;46.07;27.80;;;;;;;;;;5010792;28;20033;-64
2021/12/30 03:17:33;;;;;;;41.60;27.27;;;;;;;;;;5015185;28;20017;-64
2021/12/30 03:19:59;;;;;;;47.50;27.97;;;;;;;;;;5013756;28;20100;-63
2021/12/30 03:22:25;;;;;;;40.43;26.27;;;;;;;;;;4997580;28;20488;-63
2021/12/30 03:24:51;;;;;;;45.10;27.17;;;;;;;;;;5007007;28;20038;-64
2021/12/30 03:27:17;;;;;;;45.47;28.10;;;;;;;;;;5014771;28;20048;-64
2021/12/30 03:29:43;;;;;;;38.83;26.10;;;;;;;;;;5012596;28;20384;-64
2021/12/30 03:32:09;;;;;;;45.50;27.10;;;;;;;;;;5011159;28;20046;-64
2021/12/30 03:34:35;;;;;;;42.50;26.47;;;;;;;;;;5013198;28;20175;-64
2021/12/30 03:37:01;;;;;;;40.80;26.13;;;;;;;;;;5012473;28;20113;-64
2021/12/30 03:39:27;;;;;;;42.67;28.07;;;;;;;;;;5017826;28;20164;-64
2021/12/30 03:41:53;;;;;;;41.57;26.57;;;;;;;;;;5003849;28;20033;-63
2021/12/30 03:44:19;;;;;;;41.30;25.67;;;;;;;;;;5013722;28;20025;-64
2021/12/30 03:46:45;;;;;;;43.63;26.60;;;;;;;;;;4997255;28;20558;-64
2021/12/30 03:49:11;;;;;;;37.83;25.13;;;;;;;;;;5012404;28;20050;-64
2021/12/30 03:51:39;;;;;;;41.20;25.40;;;;;;;;;;5013905;28;20036;-64
2021/12/30 03:54:06;;;;;;;40.67;25.80;;;;;;;;;;5013471;28;20022;-64
2021/12/30 03:56:34;;;;;;;43.77;26.67;;;;;;;;;;5013635;28;20022;-64
2021/12/30 03:59:00;;;;;;;39.00;25.30;;;;;;;;;;5010274;28;20388;-64
2021/12/30 04:01:27;;;;;;;41.73;26.83;;;;;;;;;;5000166;28;20120;-65
2021/12/30 04:03:54;;;;;;;42.67;26.17;;;;;;;;;;4995994;28;20175;-64
2021/12/30 04:06:20;;;;;;;38.57;25.07;;;;;;;;;;5012280;28;20038;-64
2021/12/30 04:08:46;;;;;;;42.50;27.73;;;;;;;;;;5015309;28;20092;-64
2021/12/30 04:11:12;;;;;;;43.23;27.50;;;;;;;;;;5010340;28;20073;-64
2021/12/30 04:13:38;;;;;;;38.07;26.13;;;;;;;;;;5001433;28;20438;-64
2021/12/30 04:16:05;;;;;;;41.53;26.50;;;;;;;;;;5012575;28;20026;-64
2021/12/30 04:18:31;;;;;;;50.50;27.33;;;;;;;;;;5012527;28;20374;-64
2021/12/30 04:20:57;;;;;;;42.77;26.83;;;;;;;;;;5023961;28;20039;-65
2021/12/30 04:23:23;;;;;;;42.10;27.33;;;;;;;;;;5020109;28;20096;-64
2021/12/30 04:25:49;;;;;;;46.03;28.20;;;;;;;;;;5012672;28;20030;-64
2021/12/30 04:28:16;;;;;;;45.30;28.57;;;;;;;;;;5013778;28;20040;-64
2021/12/30 04:30:42;;;;;;;41.20;27.07;;;;;;;;;;5015107;28;20052;-64
2021/12/30 04:33:08;;;;;;;50.57;29.10;;;;;;;;;;5013749;28;20084;-64
2021/12/30 04:35:34;;;;;;;43.87;28.43;;;;;;;;;;5010506;28;20030;-64
2021/12/30 04:38:00;;;;;;;48.03;29.47;;;;;;;;;;5014100;28;20068;-65
2021/12/30 04:40:28;;;;;;;45.13;28.23;;;;;;;;;;5011059;28;20030;-65
2021/12/30 04:42:54;;;;;;;52.10;29.37;;;;;;;;;;4995230;28;20404;-65
2021/12/30 04:45:20;;;;;;;47.27;29.83;;;;;;;;;;5019809;28;20541;-64
2021/12/30 04:47:46;;;;;;;45.63;28.70;;;;;;;;;;5013279;28;20034;-64
2021/12/30 04:50:13;;;;;;;50.53;29.53;;;;;;;;;;5014007;28;20121;-64
2021/12/30 04:52:39;;;;;;;48.60;28.20;;;;;;;;;;5033324;28;20505;-64
2021/12/30 04:55:06;;;;;;;47.10;28.00;;;;;;;;;;5011908;28;20575;-65
2021/12/30 04:57:32;;;;;;;45.73;28.03;;;;;;;;;;5010770;28;20053;-64
2021/12/30 04:59:58;;;;;;;50.63;29.77;;;;;;;;;;5013779;28;20029;-64
2021/12/30 05:02:30;;;;;;;49.70;29.50;;;;;;;;;;5012890;28;20032;-64
2021/12/30 05:04:56;;;;;;;49.57;29.23;;;;;;;;;;5012983;28;20379;-64
2021/12/30 05:07:22;;;;;;;46.50;28.03;;;;;;;;;;5012883;28;20116;-64
2021/12/30 05:09:48;;;;;;;49.20;30.20;;;;;;;;;;5012010;28;20360;-64
2021/12/30 05:12:14;;;;;;;47.37;28.97;;;;;;;;;;5027862;28;20030;-64
2021/12/30 05:14:41;;;;;;;50.13;30.00;;;;;;;;;;5012458;28;20030;-64
2021/12/30 05:17:07;;;;;;;48.80;30.50;;;;;;;;;;5009592;28;20064;-65
2021/12/30 05:19:33;;;;;;;55.23;31.43;;;;;;;;;;5010569;28;20033;-64
2021/12/30 05:21:59;;;;;;;50.27;30.03;;;;;;;;;;5014751;28;20415;-65
2021/12/30 05:24:25;;;;;;;50.43;29.93;;;;;;;;;;4996872;28;20060;-64
2021/12/30 05:26:51;;;;;;;52.27;31.90;;;;;;;;;;5011294;28;20073;-64
2021/12/30 05:29:17;;;;;;;52.30;30.80;;;;;;;;;;5011250;28;20634;-64
2021/12/30 05:31:43;;;;;;;50.10;29.40;;;;;;;;;;5011811;28;20135;-65
2021/12/30 05:34:09;;;;;;;51.07;31.00;;;;;;;;;;5023313;28;20021;-64
2021/12/30 05:36:35;;;;;;;47.67;30.33;;;;;;;;;;5011728;28;20423;-64
2021/12/30 05:39:01;;;;;;;53.20;30.10;;;;;;;;;;5019971;28;20025;-64
2021/12/30 05:41:29;;;;;;;50.70;29.93;;;;;;;;;;5016479;28;20048;-64
2021/12/30 05:43:56;;;;;;;53.33;31.10;;;;;;;;;;5012599;28;20026;-65
2021/12/30 05:46:22;;;;;;;53.63;31.47;;;;;;;;;;5016172;28;20033;-64
2021/12/30 05:48:48;;;;;;;56.93;31.63;;;;;;;;;;5015671;28;20133;-63
2021/12/30 05:51:14;;;;;;;55.10;31.13;;;;;;;;;;5020045;28;20510;-64
2021/12/30 05:53:40;;;;;;;56.67;31.87;;;;;;;;;;4997987;28;20031;-64
2021/12/30 05:56:06;;;;;;;50.83;30.43;;;;;;;;;;5016324;28;20034;-64
2021/12/30 05:58:32;;;;;;;50.37;30.53;;;;;;;;;;5021043;28;20033;-64
2021/12/30 06:00:58;;;;;;;52.73;30.10;;;;;;;;;;5018946;28;20395;-64
2021/12/30 06:03:24;;;;;;;51.27;30.43;;;;;;;;;;5015741;28;20387;-64
2021/12/30 06:05:50;;;;;;;50.97;30.60;;;;;;;;;;5015706;28;20030;-63
2021/12/30 06:08:16;;;;;;;54.97;31.87;;;;;;;;;;4997136;28;20116;-64
2021/12/30 06:10:43;;;;;;;54.93;32.30;;;;;;;;;;5015173;28;20030;-64
2021/12/30 06:13:09;;;;;;;56.27;31.57;;;;;;;;;;5016130;28;20029;-64
2021/12/30 06:15:36;;;;;;;53.07;30.30;;;;;;;;;;5015349;28;20502;-64
2021/12/30 06:18:11;;;;;;;51.63;30.13;;;;;;;;;;5015602;28;20022;-63
2021/12/30 06:20:37;;;;;;;51.57;30.87;;;;;;;;;;5006282;28;20034;-64
2021/12/30 06:23:03;;;;;;;52.57;31.80;;;;;;;;;;5015433;28;20052;-64
2021/12/30 06:25:29;;;;;;;52.60;31.40;;;;;;;;;;5015409;28;20025;-64
2021/12/30 06:27:55;;;;;;;53.07;31.73;;;;;;;;;;5014662;28;20112;-64
2021/12/30 06:30:21;;;;;;;52.27;31.13;;;;;;;;;;5015570;28;20048;-64
2021/12/30 06:32:47;;;;;;;50.37;30.37;;;;;;;;;;5016206;28;20084;-64
2021/12/30 06:35:13;;;;;;;51.50;30.30;;;;;;;;;;4997514;28;20018;-64
2021/12/30 06:37:39;;;;;;;51.17;30.23;;;;;;;;;;5014134;28;20562;-64
2021/12/30 06:40:07;;;;;;;55.13;30.30;;;;;;;;;;5017047;28;20030;-65
2021/12/30 06:42:38;;;;;;;51.03;28.77;;;;;;;;;;5015024;28;20026;-65
2021/12/30 06:45:04;;;;;;;45.80;28.93;;;;;;;;;;4997650;28;20065;-64
2021/12/30 06:47:30;;;;;;;52.80;29.57;;;;;;;;;;5014720;28;20042;-64
2021/12/30 06:50:01;;;;;;;52.47;30.50;;;;;;;;;;5014470;28;20054;-64
2021/12/30 06:52:27;;;;;;;48.17;27.63;;;;;;;;;;5015545;28;20033;-64
2021/12/30 06:54:53;;;;;;;47.23;29.93;;;;;;;;;;5014133;28;20022;-64
2021/12/30 06:57:19;;;;;;;51.10;30.87;;;;;;;;;;5010247;28;20140;-63
2021/12/30 06:59:46;;;;;;;51.60;29.33;;;;;;;;;;5015455;28;20037;-63
2021/12/30 07:02:12;;;;;;;56.23;31.00;;;;;;;;;;5014834;28;20092;-64
2021/12/30 07:04:38;;;;;;;52.07;30.33;;;;;;;;;;5015505;28;20432;-64
2021/12/30 07:07:04;;;;;;;51.67;31.33;;;;;;;;;;5012988;28;20121;-64
2021/12/30 07:09:31;;;;;;;57.33;32.30;;;;;;;;;;5014755;28;20065;-64
2021/12/30 07:11:57;;;;;;;54.83;31.47;;;;;;;;;;5012802;28;20072;-64
2021/12/30 07:14:23;;;;;;;59.83;32.03;;;;;;;;;;5019732;28;20089;-64
2021/12/30 07:16:50;;;;;;;52.07;30.13;;;;;;;;;;5021356;28;20022;-64
2021/12/30 07:19:16;;;;;;;55.57;30.93;;;;;;;;;;4995928;28;20053;-64
2021/12/30 07:21:42;;;;;;;52.20;31.13;;;;;;;;;;5013744;28;20036;-64
2021/12/30 07:24:09;;;;;;;54.27;31.47;;;;;;;;;;5013290;28;20029;-64
2021/12/30 07:26:35;;;;;;;53.57;30.13;;;;;;;;;;5026972;28;20037;-64
2021/12/30 07:29:02;;;;;;;53.47;30.80;;;;;;;;;;5017799;28;20026;-64
2021/12/30 07:31:28;;;;;;;49.90;31.37;;;;;;;;;;5008274;28;20044;-64
2021/12/30 07:33:54;;;;;;;53.23;31.00;;;;;;;;;;5011352;28;20064;-63
2021/12/30 07:42:28;;;;;;;56.97;30.57;;;;;;;;;;5009694;28;20033;-64
2021/12/30 07:44:54;;;;;;;56.50;30.90;;;;;;;;;;5017253;28;20017;-63
2021/12/30 07:47:20;;;;;;;54.80;31.03;;;;;;;;;;5013997;28;20037;-63
2021/12/30 07:49:46;;;;;;;51.43;29.37;;;;;;;;;;5024974;28;20077;-63
2021/12/30 07:52:12;;;;;;;55.83;31.03;;;;;;;;;;5013388;28;20033;-64
2021/12/30 07:54:38;;;;;;;56.97;32.33;;;;;;;;;;5013541;28;20045;-64
2021/12/30 07:57:04;;;;;;;55.50;30.47;;;;;;;;;;5014377;28;20430;-64
2021/12/30 07:59:31;;;;;;;52.43;32.00;;;;;;;;;;5013273;28;20026;-63
2021/12/30 08:01:58;;;;;;;55.60;31.37;;;;;;;;;;5014371;28;20480;-65
2021/12/30 08:04:24;;;;;;;57.53;32.30;;;;;;;;;;4995668;28;20036;-64
2021/12/30 08:06:50;;;;;;;58.90;31.23;;;;;;;;;;5014088;28;20121;-64
2021/12/30 08:09:16;;;;;;;54.20;31.47;;;;;;;;;;4995124;28;20486;-64
2021/12/30 08:11:42;;;;;;;55.63;31.73;;;;;;;;;;5010593;28;20471;-64
2021/12/30 08:14:08;;;;;;;55.63;31.00;;;;;;;;;;5012183;28;20049;-64
2021/12/30 08:16:34;;;;;;;56.63;31.77;;;;;;;;;;4995100;28;20038;-64
2021/12/30 08:19:00;;;;;;;57.27;31.27;;;;;;;;;;5011339;28;21855;-64
2021/12/30 08:21:26;;;;;;;56.07;31.83;;;;;;;;;;5012454;28;20087;-65
2021/12/30 08:23:53;;;;;;;60.80;33.40;;;;;;;;;;4994942;28;20558;-64
2021/12/30 08:26:19;;;;;;;60.17;34.67;;;;;;;;;;5002134;28;20071;-64
2021/12/30 08:28:46;;;;;;;62.60;33.73;;;;;;;;;;5013579;28;20080;-64
2021/12/30 08:31:12;;;;;;;59.23;33.20;;;;;;;;;;5015237;28;20026;-64
2021/12/30 08:33:38;;;;;;;60.37;33.83;;;;;;;;;;5014001;28;20034;-64
2021/12/30 08:36:04;;;;;;;63.50;35.13;;;;;;;;;;5006255;28;20041;-65
2021/12/30 08:38:30;;;;;;;54.03;32.30;;;;;;;;;;5011764;28;20034;-64
2021/12/30 08:40:57;;;;;;;58.73;33.23;;;;;;;;;;5007314;28;20030;-65
2021/12/30 08:43:23;;;;;;;61.03;33.77;;;;;;;;;;5016880;28;20471;-64
2021/12/30 08:45:49;;;;;;;65.27;35.57;;;;;;;;;;5022765;28;20026;-63
2021/12/30 08:48:16;;;;;;;59.07;33.07;;;;;;;;;;5014305;28;20476;-65
2021/12/30 08:50:42;;;;;;;58.70;33.77;;;;;;;;;;5005864;28;20034;-64
2021/12/30 08:53:09;;;;;;;62.77;34.77;;;;;;;;;;5001894;28;20029;-65
2021/12/30 08:55:35;;;;;;;63.53;35.00;;;;;;;;;;5013277;28;20018;-64
2021/12/30 08:58:02;;;;;;;64.40;36.00;;;;;;;;;;5013340;28;20030;-64
2021/12/30 09:00:29;;;;;;;51.13;30.03;;;;;;;;;;4994631;28;20022;-65
2021/12/30 09:02:57;;;;;;;54.37;32.47;;;;;;;;;;5012616;28;20084;-64
2021/12/30 09:05:24;;;;;;;55.47;33.23;;;;;;;;;;5011218;28;20040;-64
2021/12/30 09:07:50;;;;;;;53.83;32.10;;;;;;;;;;5011875;28;20037;-64
2021/12/30 09:10:18;;;;;;;57.80;34.33;;;;;;;;;;5010554;28;20022;-64
2021/12/30 09:12:45;;;;;;;54.07;32.23;;;;;;;;;;5011424;28;20028;-64
2021/12/30 09:15:15;;;;;;;49.73;32.30;;;;;;;;;;5013034;28;20033;-65
2021/12/30 09:17:42;;;;;;;48.40;31.23;;;;;;;;;;5012627;28;20026;-63
2021/12/30 09:20:09;;;;;;;54.10;31.23;;;;;;;;;;5013086;28;20022;-64
2021/12/30 09:22:35;;;;;;;50.87;30.03;;;;;;;;;;5003950;28;20109;-64
2021/12/30 09:25:05;;;;;;;52.60;30.47;;;;;;;;;;5023950;28;20384;-64
2021/12/30 09:27:31;;;;;;;51.37;31.80;;;;;;;;;;5012556;28;20034;-64
2021/12/30 09:29:59;;;;;;;54.43;31.67;;;;;;;;;;5021475;28;20435;-64
2021/12/30 09:32:25;;;;;;;57.77;33.40;;;;;;;;;;5006834;28;20022;-64
2021/12/30 09:37:56;;;;;;;54.40;32.20;;;;;;;;;;5006779;28;20081;-63
2021/12/30 09:40:23;;;;;;;53.17;31.30;;;;;;;;;;4993591;28;20068;-63
2021/12/30 09:42:52;;;;;;;56.47;33.57;;;;;;;;;;5008667;28;20034;-63
2021/12/30 09:45:18;;;;;;;58.27;32.37;;;;;;;;;;5011980;28;20026;-63
2021/12/30 09:47:54;;;;;;;57.70;32.77;;;;;;;;;;5012622;28;20443;-64
2021/12/30 09:50:26;;;;;;;54.73;33.33;;;;;;;;;;5001669;28;20048;-63
2021/12/30 09:52:52;;;;;;;49.63;30.57;;;;;;;;;;5017953;28;20045;-62
2021/12/30 09:55:18;;;;;;;53.37;32.83;;;;;;;;;;5011930;28;20383;-63
2021/12/30 09:57:45;;;;;;;50.50;30.20;;;;;;;;;;5006575;28;20029;-64
2021/12/30 10:00:12;;;;;;;58.77;31.63;;;;;;;;;;5012314;28;20046;-63
2021/12/30 10:02:40;;;;;;;50.97;31.33;;;;;;;;;;5012205;28;20026;-63
2021/12/30 10:05:11;;;;;;;58.27;32.10;;;;;;;;;;5010108;28;20041;-64
2021/12/30 10:07:41;;;;;;;50.93;31.63;;;;;;;;;;5011015;28;20042;-64
2021/12/30 10:10:27;;;;;;;55.67;32.20;;;;;;;;;;4998649;28;20022;-63
2021/12/30 10:12:53;;;;;;;51.33;32.47;;;;;;;;;;5000408;28;20038;-64
2021/12/30 10:15:20;;;;;;;57.67;33.63;;;;;;;;;;4998683;28;20018;-64
2021/12/30 10:17:53;;;;;;;53.10;31.97;;;;;;;;;;5002777;28;20357;-64
2021/12/30 10:20:21;;;;;;;53.93;32.10;;;;;;;;;;5012201;28;20391;-64
2021/12/30 10:22:47;;;;;;;57.10;34.30;;;;;;;;;;5015780;28;20487;-64
2021/12/30 10:25:39;;;;;;;55.40;32.93;;;;;;;;;;5028165;28;20133;-63
2021/12/30 10:28:24;;;;;;;57.90;33.50;;;;;;;;;;5014039;28;20092;-63
2021/12/30 10:30:51;;;;;;;57.47;32.60;;;;;;;;;;5015702;28;20404;-63
2021/12/30 10:33:19;;;;;;;59.23;33.80;;;;;;;;;;5000580;28;20030;-63
2021/12/30 10:35:46;;;;;;;59.63;32.33;;;;;;;;;;5006733;28;20082;-63
2021/12/30 10:38:12;;;;;;;65.20;34.90;;;;;;;;;;5015860;28;20022;-63
2021/12/30 10:40:53;;;;;;;68.83;37.60;;;;;;;;;;5017463;28;20052;-64
2021/12/30 10:46:10;;;;;;;70.17;37.00;;;;;;;;;;5016071;28;20037;-63
2021/12/30 10:48:45;;;;;;;71.00;36.07;;;;;;;;;;5017699;28;20043;-62
2021/12/30 10:51:13;;;;;;;63.90;37.47;;;;;;;;;;5015927;28;20030;-63
2021/12/30 10:53:39;;;;;;;71.10;37.90;;;;;;;;;;5015485;28;20034;-63
2021/12/30 10:56:23;;;;;;;71.40;36.70;;;;;;;;;;5015723;28;20139;-63
2021/12/30 10:58:50;;;;;;;66.43;36.20;;;;;;;;;;4996635;28;20120;-63
2021/12/30 11:01:20;;;;;;;67.17;35.43;;;;;;;;;;5015868;28;20026;-64
2021/12/30 11:03:56;;;;;;;70.07;39.17;;;;;;;;;;5014244;28;20026;-64
2021/12/30 11:06:23;;;;;;;64.03;36.03;;;;;;;;;;4996051;28;20121;-65
2021/12/30 11:09:02;;;;;;;66.43;36.47;;;;;;;;;;5009375;28;20524;-65
2021/12/30 11:11:29;;;;;;;72.30;36.27;;;;;;;;;;5022841;28;20109;-64
2021/12/30 11:14:02;;;;;;;64.40;37.03;;;;;;;;;;5014419;28;20041;-64
2021/12/30 11:16:28;;;;;;;62.33;37.00;;;;;;;;;;5015466;28;20128;-64
2021/12/30 11:18:56;;;;;;;70.87;36.33;;;;;;;;;;4999430;28;20026;-64
2021/12/30 11:21:43;;;;;;;68.83;37.60;;;;;;;;;;5026604;28;20533;-64
2021/12/30 11:24:10;;;;;;;71.60;38.37;;;;;;;;;;5014119;28;20030;-64
2021/12/30 11:26:36;;;;;;;68.07;38.07;;;;;;;;;;5015553;28;20034;-65
2021/12/30 11:29:03;;;;;;;73.47;38.63;;;;;;;;;;5015237;28;20057;-64
2021/12/30 11:31:30;;;;;;;76.33;40.47;;;;;;;;;;5015069;28;20034;-64
2021/12/30 11:33:57;;;;;;;69.57;38.90;;;;;;;;;;4996924;28;20030;-64
2021/12/30 11:36:23;;;;;;;66.13;38.00;;;;;;;;;;5012695;28;20132;-64
2021/12/30 11:38:49;;;;;;;69.90;40.07;;;;;;;;;;5014051;28;20140;-64
2021/12/30 11:41:22;;;;;;;80.00;41.47;;;;;;;;;;5014635;28;20037;-64
2021/12/30 11:43:49;;;;;;;72.10;39.30;;;;;;;;;;5014321;28;20042;-64
2021/12/30 11:46:34;;;;;;;72.63;40.80;;;;;;;;;;5014382;28;20431;-64
2021/12/30 11:49:01;;;;;;;77.63;40.35;;;;;;;;;;5014447;28;20092;-64
2021/12/30 11:51:40;;;;;;;71.27;40.00;;;;;;;;;;5014935;28;20030;-64
2021/12/30 11:54:25;;;;;;;70.53;39.50;;;;;;;;;;4996041;28;20026;-64
2021/12/30 11:57:09;;;;;;;70.95;40.30;;;;;;;;;;5015139;28;20025;-65
2021/12/30 11:59:39;;;;;;;71.00;40.25;;;;;;;;;;5014088;28;20030;-64
2021/12/30 12:02:25;;;;;;;75.07;39.60;;;;;;;;;;5014634;28;20494;-65
2021/12/30 12:04:51;;;;;;;77.83;40.80;;;;;;;;;;5011208;28;20092;-64
2021/12/30 12:07:18;;;;;;;71.03;40.80;;;;;;;;;;5014362;28;20053;-65
2021/12/30 12:09:44;;;;;;;73.40;41.97;;;;;;;;;;5015123;28;20448;-65
2021/12/30 12:12:12;;;;;;;75.40;42.60;;;;;;;;;;5001384;28;20396;-64
2021/12/30 12:14:47;;;;;;;80.87;42.73;;;;;;;;;;5008962;28;20038;-65
2021/12/30 12:17:19;;;;;;;74.33;43.53;;;;;;;;;;5014370;28;20022;-65
2021/12/30 12:19:45;;;;;;;78.27;41.50;;;;;;;;;;5007878;28;20025;-65
2021/12/30 12:22:17;;;;;;;74.97;41.37;;;;;;;;;;5014142;28;20080;-64
2021/12/30 12:24:44;;;;;;;73.63;42.60;;;;;;;;;;5013313;28;20056;-65
2021/12/30 12:27:30;;;;;;;75.67;41.83;;;;;;;;;;5014011;28;20045;-64
2021/12/30 12:29:57;;;;;;;77.40;42.40;;;;;;;;;;5001370;28;20029;-64
2021/12/30 12:32:29;;;;;;;81.20;43.53;;;;;;;;;;5014250;28;20021;-64
2021/12/30 12:34:56;;;;;;;78.07;42.47;;;;;;;;;;5013109;28;20079;-64
2021/12/30 12:37:47;;;;;;;80.57;44.37;;;;;;;;;;5019462;28;20029;-64
2021/12/30 12:40:13;;;;;;;79.33;43.17;;;;;;;;;;4990832;28;20503;-64
2021/12/30 12:42:51;;;;;;;77.00;42.87;;;;;;;;;;5013873;28;20033;-65
2021/12/30 12:45:17;;;;;;;73.77;42.07;;;;;;;;;;5013264;28;20036;-64
2021/12/30 12:47:44;;;;;;;83.20;44.23;;;;;;;;;;5021220;28;20100;-64
2021/12/30 12:50:10;;;;;;;81.00;43.53;;;;;;;;;;5012859;28;20050;-64
2021/12/30 12:52:46;;;;;;;87.43;46.37;;;;;;;;;;5014040;28;20038;-64
2021/12/30 12:55:13;;;;;;;80.67;43.93;;;;;;;;;;5012313;28;20030;-64
2021/12/30 12:57:41;;;;;;;80.73;44.40;;;;;;;;;;5013757;28;20403;-64
2021/12/30 13:00:08;;;;;;;87.47;45.43;;;;;;;;;;5013191;28;20072;-64
2021/12/30 13:02:34;;;;;;;81.50;46.23;;;;;;;;;;5013855;28;20030;-64
2021/12/30 13:05:12;;;;;;;88.20;50.10;;;;;;;;;;5012588;28;20483;-64
2021/12/30 13:07:38;;;;;;;98.60;50.10;;;;;;;;;;5012670;28;20045;-64
2021/12/30 13:10:05;;;;;;;91.43;47.63;;;;;;;;;;5013494;28;20541;-64
2021/12/30 13:12:35;;;;;;;100.23;51.67;;;;;;;;;;5012182;28;20030;-64
2021/12/30 13:15:01;;;;;;;106.83;55.23;;;;;;;;;;5011898;28;20494;-64
2021/12/30 13:17:27;;;;;;;106.37;54.80;;;;;;;;;;5012597;28;20026;-64
2021/12/30 13:19:54;;;;;;;102.07;51.83;;;;;;;;;;5013498;28;20033;-64
2021/12/30 13:22:23;;;;;;;100.73;56.90;;;;;;;;;;4993281;28;20030;-64
2021/12/30 13:24:50;;;;;;;109.63;57.07;;;;;;;;;;5013053;28;20022;-64
2021/12/30 13:27:16;;;;;;;111.40;56.77;;;;;;;;;;5012547;28;20532;-64
2021/12/30 13:29:46;;;;;;;107.47;56.50;;;;;;;;;;5011393;28;20033;-64
2021/12/30 13:32:12;;;;;;;111.33;55.80;;;;;;;;;;5011686;28;20613;-63
2021/12/30 13:34:57;;;;;;;98.23;52.67;;;;;;;;;;5013168;28;20030;-64
2021/12/30 13:37:23;;;;;;;;;;;;;;;;;;4998055;28;20030;-64
2021/12/30 13:39:53;;;;;;;97.07;51.87;;;;;;;;;;5013013;28;20376;-64
2021/12/30 13:42:19;;;;;;;101.13;55.37;;;;;;;;;;5004510;28;20104;-64
2021/12/30 13:44:50;;;;;;;101.80;54.10;;;;;;;;;;5012836;28;20028;-65
2021/12/30 13:47:16;;;;;;;103.73;53.30;;;;;;;;;;5012310;28;20042;-64
2021/12/30 13:49:42;;;;;;;106.93;56.10;;;;;;;;;;5012597;28;20045;-63
2021/12/30 13:52:08;;;;;;;103.50;53.67;;;;;;;;;;4988624;28;20036;-64
2021/12/30 13:54:34;;;;;;;116.50;61.20;;;;;;;;;;5017199;28;20030;-64
2021/12/30 13:57:00;;;;;;;113.30;59.30;;;;;;;;;;5012602;28;20080;-64
2021/12/30 13:59:30;;;;;;;116.40;59.83;;;;;;;;;;5013972;28;20424;-64
2021/12/30 14:01:59;;;;;;;116.20;60.87;;;;;;;;;;5017023;28;20112;-64
2021/12/30 14:04:28;;;;;;;118.57;61.80;;;;;;;;;;5013823;28;20049;-64
2021/12/30 14:06:58;;;;;;;114.67;62.10;;;;;;;;;;5016519;28;20042;-65
2021/12/30 14:09:25;;;;;;;115.43;58.90;;;;;;;;;;5016404;28;20026;-64
2021/12/30 14:11:52;;;;;;;115.43;60.57;;;;;;;;;;5011280;28;20022;-65
2021/12/30 14:14:30;;;;;;;125.90;62.27;;;;;;;;;;5016863;28;20483;-65
2021/12/30 14:16:59;;;;;;;111.40;58.90;;;;;;;;;;5016461;28;20033;-65
2021/12/30 14:19:29;;;;;;;115.77;60.67;;;;;;;;;;4998472;28;20076;-64
2021/12/30 14:21:55;;;;;;;118.27;60.50;;;;;;;;;;5015677;28;20030;-65
2021/12/30 14:24:22;;;;;;;119.03;59.67;;;;;;;;;;5031668;28;20436;-65
2021/12/30 14:26:53;;;;;;;113.00;60.30;;;;;;;;;;5029634;28;20034;-64
2021/12/30 14:29:20;;;;;;;112.17;58.03;;;;;;;;;;5013125;28;20037;-64
2021/12/30 14:31:52;;;;;;;110.67;58.53;;;;;;;;;;4998673;28;20022;-64
2021/12/30 14:34:19;;;;;;;106.53;60.83;;;;;;;;;;4997440;28;20040;-64
2021/12/30 14:36:52;;;;;;;113.73;62.30;;;;;;;;;;4998486;28;20030;-64
2021/12/30 14:39:26;;;;;;;115.23;60.97;;;;;;;;;;4997615;28;20026;-65
2021/12/30 14:42:03;;;;;;;120.47;61.47;;;;;;;;;;5016748;28;20026;-65
2021/12/30 14:44:29;;;;;;;107.00;58.47;;;;;;;;;;5018727;28;20104;-65